createdAt,value
2018-11-03T00:00:43.293Z,10.81
2018-11-03T00:03:12.739Z,10.79
2018-11-03T00:05:42.184Z,10.75
2018-11-03T00:08:11.594Z,10.75
2018-11-03T00:10:41.460Z,10.72
2018-11-03T00:13:11.172Z,10.75
2018-11-03T00:15:40.565Z,10.77
2018-11-03T00:18:09.906Z,10.79
2018-11-03T00:20:39.272Z,10.82
2018-11-03T00:23:09.060Z,10.87
2018-11-03T00:25:40.550Z,10.88
2018-11-03T00:28:09.950Z,10.87
2018-11-03T00:30:39.339Z,10.85
2018-11-03T00:33:08.663Z,10.81
2018-11-03T00:35:38.018Z,10.81
2018-11-03T00:38:07.420Z,10.81
2018-11-03T00:40:37.913Z,10.80
2018-11-03T00:43:07.357Z,10.76
2018-11-03T00:45:37.262Z,10.81
2018-11-03T00:48:06.909Z,10.83
2018-11-03T00:50:36.262Z,10.88
2018-11-03T00:53:06.874Z,10.90
2018-11-03T00:55:36.186Z,10.91
2018-11-03T00:58:05.542Z,10.97
2018-11-03T01:00:34.893Z,10.94
2018-11-03T01:03:04.254Z,10.90
2018-11-03T01:05:33.702Z,10.94
2018-11-03T01:08:03.134Z,10.90
2018-11-03T01:10:32.449Z,10.90
2018-11-03T01:13:01.784Z,10.95
2018-11-03T01:15:31.634Z,10.95
2018-11-03T01:18:00.961Z,10.97
2018-11-03T01:20:30.286Z,10.94
2018-11-03T01:22:59.638Z,10.97
2018-11-03T01:25:28.962Z,11.01
2018-11-03T01:27:58.318Z,11.03
2018-11-03T01:30:28.762Z,11.01
2018-11-03T01:32:58.098Z,11.03
2018-11-03T01:35:27.451Z,11.03
2018-11-03T01:37:56.818Z,11.03
2018-11-03T01:40:26.153Z,11.01
2018-11-03T01:42:55.479Z,11.01
2018-11-03T01:45:24.825Z,11.02
2018-11-03T01:47:54.165Z,11.03
2018-11-03T01:50:23.477Z,10.95
2018-11-03T01:52:52.830Z,10.97
2018-11-03T01:55:22.154Z,10.95
2018-11-03T01:57:51.499Z,10.94
2018-11-03T02:00:20.860Z,10.88
2018-11-03T02:02:50.177Z,10.96
2018-11-03T02:05:19.514Z,10.91
2018-11-03T02:07:48.921Z,10.91
2018-11-03T02:10:18.291Z,10.88
2018-11-03T02:12:47.609Z,10.94
2018-11-03T02:15:16.986Z,10.85
2018-11-03T02:17:46.346Z,10.83
2018-11-03T02:20:15.653Z,10.85
2018-11-03T02:22:45.066Z,10.81
2018-11-03T02:25:14.455Z,10.80
2018-11-03T02:27:43.816Z,10.90
2018-11-03T02:30:13.335Z,10.85
2018-11-03T02:32:42.682Z,10.89
2018-11-03T02:35:12.364Z,10.86
2018-11-03T02:37:42.079Z,10.98
2018-11-03T02:40:12.683Z,10.95
2018-11-03T02:42:42.660Z,10.95
2018-11-03T02:45:12.816Z,10.89
2018-11-03T02:47:42.419Z,10.86
2018-11-03T02:50:13.430Z,10.81
2018-11-03T02:52:43.162Z,10.82
2018-11-03T02:55:12.527Z,10.75
2018-11-03T02:57:41.917Z,10.71
2018-11-03T03:00:11.997Z,10.69
2018-11-03T03:02:41.344Z,10.70
2018-11-03T03:05:11.200Z,10.65
2018-11-03T03:07:40.774Z,10.63
2018-11-03T03:10:12.084Z,10.66
2018-11-03T03:12:41.445Z,10.67
2018-11-03T03:15:12.713Z,10.65
2018-11-03T03:17:42.403Z,10.63
2018-11-03T03:20:12.668Z,10.61
2018-11-03T03:22:42.145Z,10.59
2018-11-03T03:25:12.092Z,10.63
2018-11-03T03:27:41.510Z,10.60
2018-11-03T03:30:11.410Z,10.60
2018-11-03T03:32:41.858Z,10.66
2018-11-03T03:35:12.607Z,10.63
2018-11-03T03:37:41.930Z,10.61
2018-11-03T03:40:14.518Z,10.63
2018-11-03T03:42:53.464Z,10.62
2018-11-03T03:45:27.782Z,10.61
2018-11-03T03:48:00.619Z,10.61
2018-11-03T03:50:32.698Z,10.61
2018-11-03T03:53:05.027Z,10.57
2018-11-03T03:55:34.392Z,10.61
2018-11-03T03:58:03.750Z,10.68
2018-11-03T04:00:33.058Z,10.61
2018-11-03T04:03:02.672Z,10.62
2018-11-03T04:05:32.025Z,10.68
2018-11-03T04:08:01.368Z,10.68
2018-11-03T04:10:31.825Z,10.67
2018-11-03T04:13:01.362Z,10.64
2018-11-03T04:15:30.701Z,10.59
2018-11-03T04:18:00.033Z,10.59
2018-11-03T04:20:29.349Z,10.60
2018-11-03T04:22:58.670Z,10.58
2018-11-03T04:25:29.114Z,10.57
2018-11-03T04:27:58.456Z,10.52
2018-11-03T04:30:27.806Z,10.54
2018-11-03T04:32:57.216Z,10.53
2018-11-03T04:35:26.529Z,10.53
2018-11-03T04:37:55.851Z,10.51
2018-11-03T04:40:25.197Z,10.56
2018-11-03T04:42:56.571Z,10.56
2018-11-03T04:45:26.012Z,10.50
2018-11-03T04:47:55.280Z,10.52
2018-11-03T04:50:24.606Z,10.49
2018-11-03T04:52:53.989Z,10.48
2018-11-03T04:55:23.718Z,10.51
2018-11-03T04:57:52.880Z,10.50
2018-11-03T05:00:23.333Z,10.55
2018-11-03T05:02:52.653Z,10.61
2018-11-03T05:05:21.981Z,10.66
2018-11-03T05:07:51.324Z,10.65
2018-11-03T05:10:20.718Z,10.71
2018-11-03T05:12:50.458Z,10.74
2018-11-03T05:15:19.751Z,10.72
2018-11-03T05:17:49.093Z,10.68
2018-11-03T05:20:19.557Z,10.64
2018-11-03T05:22:49.984Z,10.59
2018-11-03T05:25:19.349Z,10.63
2018-11-03T05:27:48.931Z,10.66
2018-11-03T05:30:18.241Z,10.66
2018-11-03T05:32:47.598Z,10.65
2018-11-03T05:35:16.933Z,10.61
2018-11-03T05:37:46.233Z,10.59
2018-11-03T05:40:15.814Z,10.61
2018-11-03T05:42:45.162Z,10.63
2018-11-03T05:45:14.518Z,10.60
2018-11-03T05:47:43.855Z,10.59
2018-11-03T05:50:13.174Z,10.57
2018-11-03T05:52:42.522Z,10.60
2018-11-03T05:55:11.878Z,10.59
2018-11-03T05:57:41.201Z,10.62
2018-11-03T06:00:10.969Z,10.61
2018-11-03T06:02:40.317Z,10.61
2018-11-03T06:05:09.678Z,10.61
2018-11-03T06:07:40.071Z,10.70
2018-11-03T06:10:09.702Z,10.65
2018-11-03T06:12:39.101Z,10.71
2018-11-03T06:15:08.790Z,10.68
2018-11-03T06:17:38.113Z,10.67
2018-11-03T06:20:07.758Z,10.71
2018-11-03T06:22:37.193Z,10.70
2018-11-03T06:25:07.750Z,10.69
2018-11-03T06:27:37.441Z,10.66
2018-11-03T06:30:09.238Z,10.72
2018-11-03T06:32:38.592Z,10.70
2018-11-03T06:35:08.918Z,10.71
2018-11-03T06:37:38.290Z,10.67
2018-11-03T06:40:08.155Z,10.68
2018-11-03T06:42:38.075Z,10.70
2018-11-03T06:45:09.667Z,10.69
2018-11-03T06:47:39.240Z,10.71
2018-11-03T06:50:08.838Z,10.68
2018-11-03T06:52:38.155Z,10.71
2018-11-03T06:55:08.182Z,10.73
2018-11-03T06:57:37.521Z,10.83
2018-11-03T07:00:08.720Z,10.85
2018-11-03T07:02:38.094Z,10.83
2018-11-03T07:05:09.170Z,10.87
2018-11-03T07:07:38.551Z,10.89
2018-11-03T07:10:09.111Z,10.83
2018-11-03T07:12:38.723Z,10.85
2018-11-03T07:15:07.802Z,10.79
2018-11-03T07:17:37.354Z,10.73
2018-11-03T07:20:09.262Z,10.77
2018-11-03T07:22:38.617Z,10.79
2018-11-03T07:25:08.198Z,10.91
2018-11-03T07:27:37.564Z,10.97
2018-11-03T07:30:10.993Z,11.02
2018-11-03T07:32:40.401Z,11.07
2018-11-03T07:35:09.869Z,10.99
2018-11-03T07:37:39.465Z,11.02
2018-11-03T07:40:12.336Z,11.00
2018-11-03T07:42:41.922Z,11.01
2018-11-03T07:45:11.214Z,11.04
2018-11-03T07:47:40.585Z,10.88
2018-11-03T07:50:12.054Z,10.75
2018-11-03T07:52:41.962Z,10.82
2018-11-03T07:55:14.782Z,10.88
2018-11-03T07:57:44.105Z,10.87
2018-11-03T08:00:14.040Z,10.93
2018-11-03T08:02:43.749Z,11.10
2018-11-03T08:05:13.114Z,11.16
2018-11-03T08:07:43.506Z,11.18
2018-11-03T08:10:13.085Z,11.40
2018-11-03T08:12:42.483Z,11.63
2018-11-03T08:15:12.078Z,12.04
2018-11-03T08:17:41.541Z,12.70
2018-11-03T08:20:11.677Z,12.56
2018-11-03T08:22:41.074Z,12.31
2018-11-03T08:25:10.401Z,12.71
2018-11-03T08:27:39.717Z,14.04
2018-11-03T08:30:11.525Z,15.01
2018-11-03T08:32:40.885Z,15.91
2018-11-03T08:35:11.438Z,14.32
2018-11-03T08:37:41.000Z,13.33
2018-11-03T08:40:11.921Z,13.17
2018-11-03T08:42:41.428Z,13.62
2018-11-03T08:45:11.241Z,14.22
2018-11-03T08:47:40.661Z,14.21
2018-11-03T08:50:11.540Z,14.22
2018-11-03T08:52:41.134Z,14.29
2018-11-03T08:55:11.843Z,15.00
2018-11-03T08:57:41.285Z,15.21
2018-11-03T09:00:14.315Z,15.12
2018-11-03T09:02:43.857Z,14.73
2018-11-03T09:05:13.250Z,14.65
2018-11-03T09:07:42.685Z,14.96
2018-11-03T09:10:13.481Z,15.01
2018-11-03T09:12:42.890Z,15.15
2018-11-03T09:15:13.473Z,14.80
2018-11-03T09:17:43.530Z,14.78
2018-11-03T09:20:13.810Z,15.08
2018-11-03T09:22:43.172Z,15.11
2018-11-03T09:25:13.749Z,15.73
2018-11-03T09:27:44.754Z,15.68
2018-11-03T09:30:16.841Z,15.61
2018-11-03T09:32:46.197Z,15.69
2018-11-03T09:35:16.389Z,16.26
2018-11-03T09:37:45.772Z,15.89
2018-11-03T09:40:16.413Z,15.68
2018-11-03T09:42:50.834Z,16.22
2018-11-03T09:45:21.442Z,16.26
2018-11-03T09:47:50.884Z,16.74
2018-11-03T09:50:20.185Z,16.31
2018-11-03T09:52:49.510Z,16.29
2018-11-03T09:55:19.934Z,16.39
2018-11-03T09:57:54.886Z,15.52
2018-11-03T10:00:24.965Z,15.62
2018-11-03T10:02:54.350Z,16.05
2018-11-03T10:05:24.035Z,15.47
2018-11-03T10:07:53.387Z,16.13
2018-11-03T10:10:24.032Z,16.55
2018-11-03T10:12:53.437Z,16.92
2018-11-03T10:15:22.774Z,16.42
2018-11-03T10:17:52.105Z,16.87
2018-11-03T10:20:22.466Z,16.11
2018-11-03T10:22:52.945Z,16.84
2018-11-03T10:25:22.291Z,16.79
2018-11-03T10:27:51.770Z,17.06
2018-11-03T10:30:21.236Z,16.63
2018-11-03T10:32:50.698Z,16.09
2018-11-03T10:35:20.105Z,15.71
2018-11-03T10:37:50.607Z,15.71
2018-11-03T10:40:19.986Z,16.44
2018-11-03T10:42:49.318Z,16.70
2018-11-03T10:45:18.763Z,16.17
2018-11-03T10:47:48.422Z,16.28
2018-11-03T10:50:19.169Z,16.22
2018-11-03T10:52:48.957Z,16.34
2018-11-03T10:55:20.078Z,16.83
2018-11-03T10:57:49.726Z,17.16
2018-11-03T11:00:29.298Z,17.72
2018-11-03T11:03:03.845Z,17.18
2018-11-03T11:05:38.409Z,16.98
2018-11-03T11:08:12.927Z,15.47
2018-11-03T11:10:47.423Z,15.54
2018-11-03T11:13:19.109Z,16.19
2018-11-03T11:15:51.019Z,16.77
2018-11-03T11:18:20.337Z,16.22
2018-11-03T11:20:49.706Z,16.04
2018-11-03T11:23:19.215Z,16.00
2018-11-03T11:25:48.485Z,15.98
2018-11-03T11:28:17.838Z,15.49
2018-11-03T11:30:47.286Z,15.21
2018-11-03T11:33:18.282Z,15.19
2018-11-03T11:35:47.665Z,14.95
2018-11-03T11:38:17.115Z,14.70
2018-11-03T11:40:46.533Z,14.59
2018-11-03T11:43:16.150Z,14.75
2018-11-03T11:45:46.512Z,14.76
2018-11-03T11:48:15.901Z,14.82
2018-11-03T11:50:45.331Z,14.95
2018-11-03T11:53:14.780Z,14.90
2018-11-03T11:55:44.538Z,14.97
2018-11-03T11:58:13.949Z,15.16
2018-11-03T12:00:43.687Z,15.60
2018-11-03T12:03:12.930Z,15.72
2018-11-03T12:05:43.247Z,15.59
2018-11-03T12:08:14.626Z,15.23
2018-11-03T12:10:43.985Z,15.18
2018-11-03T12:13:13.603Z,14.95
2018-11-03T12:15:42.961Z,14.64
2018-11-03T12:18:12.322Z,14.52
2018-11-03T12:20:41.652Z,14.49
2018-11-03T12:23:11.024Z,14.65
2018-11-03T12:25:40.479Z,14.57
2018-11-03T12:28:09.730Z,14.53
2018-11-03T12:30:39.084Z,14.33
2018-11-03T12:33:08.625Z,14.21
2018-11-03T12:35:38.190Z,14.23
2018-11-03T12:38:07.513Z,14.34
2018-11-03T12:40:36.995Z,14.29
2018-11-03T12:43:06.556Z,14.10
2018-11-03T12:45:35.945Z,14.38
2018-11-03T12:48:05.662Z,14.54
2018-11-03T12:50:37.082Z,14.43
2018-11-03T12:53:06.586Z,14.30
2018-11-03T12:55:36.014Z,14.22
2018-11-03T12:58:05.424Z,14.25
2018-11-03T13:00:35.130Z,13.97
2018-11-03T13:03:06.661Z,13.93
2018-11-03T13:05:36.088Z,13.90
2018-11-03T13:08:05.454Z,14.02
2018-11-03T13:10:35.214Z,14.15
2018-11-03T13:13:04.754Z,13.99
2018-11-03T13:15:34.092Z,14.15
2018-11-03T13:18:03.407Z,13.94
2018-11-03T13:20:32.817Z,14.03
2018-11-03T13:23:02.142Z,14.00
2018-11-03T13:25:31.451Z,13.84
2018-11-03T13:28:00.969Z,13.71
2018-11-03T13:30:30.266Z,13.77
2018-11-03T13:32:59.560Z,13.67
2018-11-03T13:35:29.263Z,13.75
2018-11-03T13:37:58.667Z,13.83
2018-11-03T13:40:28.258Z,13.79
2018-11-03T13:42:57.598Z,13.93
2018-11-03T13:45:26.938Z,13.85
2018-11-03T13:47:56.564Z,13.87
2018-11-03T13:50:25.785Z,13.78
2018-11-03T13:52:56.162Z,13.67
2018-11-03T13:55:25.537Z,13.66
2018-11-03T13:57:54.841Z,13.63
2018-11-03T14:00:24.163Z,13.60
2018-11-03T14:02:53.542Z,13.50
2018-11-03T14:05:22.869Z,13.51
2018-11-03T14:07:54.253Z,13.50
2018-11-03T14:10:23.843Z,13.55
2018-11-03T14:12:57.063Z,13.57
2018-11-03T14:15:26.918Z,13.53
2018-11-03T14:17:56.297Z,13.37
2018-11-03T14:20:25.907Z,13.38
2018-11-03T14:22:55.638Z,13.35
2018-11-03T14:25:25.490Z,13.36
2018-11-03T14:27:55.287Z,13.38
2018-11-03T14:30:25.022Z,13.48
2018-11-03T14:32:54.480Z,13.49
2018-11-03T14:35:24.030Z,13.38
2018-11-03T14:37:53.651Z,13.50
2018-11-03T14:40:23.457Z,13.16
2018-11-03T14:42:52.870Z,13.27
2018-11-03T14:45:22.429Z,13.24
2018-11-03T14:47:52.088Z,13.20
2018-11-03T14:50:38.173Z,13.18
2018-11-03T14:53:08.051Z,13.09
2018-11-03T14:55:39.434Z,13.01
2018-11-03T14:58:08.861Z,12.92
2018-11-03T15:00:38.867Z,12.86
2018-11-03T15:03:08.514Z,12.77
2018-11-03T15:05:37.821Z,12.77
2018-11-03T15:08:07.141Z,12.73
2018-11-03T15:10:36.506Z,12.70
2018-11-03T15:13:07.027Z,12.74
2018-11-03T15:15:38.030Z,12.72
2018-11-03T15:18:07.537Z,12.63
2018-11-03T15:20:36.899Z,12.65
2018-11-03T15:23:06.435Z,12.63
2018-11-03T15:25:36.511Z,12.48
2018-11-03T15:28:06.070Z,12.54
2018-11-03T15:30:36.435Z,12.49
2018-11-03T15:33:06.166Z,12.42
2018-11-03T15:35:37.733Z,12.40
2018-11-03T15:38:07.539Z,12.39
2018-11-03T15:40:37.006Z,12.34
2018-11-03T15:43:07.417Z,12.32
2018-11-03T15:45:36.734Z,12.25
2018-11-03T15:48:06.226Z,12.29
2018-11-03T15:50:40.949Z,12.25
2018-11-03T15:53:10.277Z,12.20
2018-11-03T15:55:39.622Z,12.14
2018-11-03T15:58:09.038Z,12.14
2018-11-03T16:00:38.878Z,12.17
2018-11-03T16:03:08.240Z,12.10
2018-11-03T16:05:38.670Z,12.03
2018-11-03T16:08:08.037Z,12.03
2018-11-03T16:10:37.470Z,12.07
2018-11-03T16:13:06.998Z,12.02
2018-11-03T16:15:36.350Z,12.04
2018-11-03T16:18:05.763Z,12.01
2018-11-03T16:20:36.158Z,11.99
2018-11-03T16:23:05.529Z,11.98
2018-11-03T16:25:34.872Z,11.98
2018-11-03T16:28:04.633Z,11.99
2018-11-03T16:30:33.954Z,11.98
2018-11-03T16:33:03.306Z,12.03
2018-11-03T16:35:33.849Z,11.96
2018-11-03T16:38:03.644Z,11.96
2018-11-03T16:40:33.139Z,11.92
2018-11-03T16:43:02.624Z,11.86
2018-11-03T16:45:32.154Z,11.92
2018-11-03T16:48:01.438Z,11.85
2018-11-03T16:50:30.870Z,11.81
2018-11-03T16:53:01.373Z,11.73
2018-11-03T16:55:31.919Z,11.74
2018-11-03T16:58:01.254Z,11.79
2018-11-03T17:00:30.561Z,11.78
2018-11-03T17:03:00.293Z,11.74
2018-11-03T17:05:29.629Z,11.68
2018-11-03T17:07:59.032Z,11.63
2018-11-03T17:10:28.381Z,11.65
2018-11-03T17:12:57.947Z,11.64
2018-11-03T17:15:27.502Z,11.63
2018-11-03T17:17:56.854Z,11.66
2018-11-03T17:20:27.273Z,11.64
2018-11-03T17:22:56.793Z,11.72
2018-11-03T17:25:26.241Z,11.75
2018-11-03T17:27:55.722Z,11.69
2018-11-03T17:30:26.153Z,11.65
2018-11-03T17:32:55.630Z,11.61
2018-11-03T17:35:25.016Z,11.59
2018-11-03T17:37:55.427Z,11.60
2018-11-03T17:40:24.799Z,11.59
2018-11-03T17:42:54.298Z,11.61
2018-11-03T17:45:23.703Z,11.59
2018-11-03T17:47:53.009Z,11.58
2018-11-03T17:50:22.359Z,11.59
2018-11-03T17:52:51.699Z,11.55
2018-11-03T17:55:21.038Z,11.51
2018-11-03T17:57:50.888Z,11.52
2018-11-03T18:00:20.373Z,11.51
2018-11-03T18:02:49.898Z,11.50
2018-11-03T18:05:19.338Z,11.50
2018-11-03T18:07:48.731Z,11.51
2018-11-03T18:10:18.119Z,11.47
2018-11-03T18:12:47.462Z,11.46
2018-11-03T18:15:16.778Z,11.42
2018-11-03T18:17:47.196Z,11.41
2018-11-03T18:20:16.549Z,11.41
2018-11-03T18:22:45.864Z,11.39
2018-11-03T18:25:15.202Z,11.36
2018-11-03T18:27:44.530Z,11.33
2018-11-03T18:30:14.117Z,11.32
2018-11-03T18:32:43.489Z,11.30
2018-11-03T18:35:12.894Z,11.25
2018-11-03T18:37:42.342Z,11.30
2018-11-03T18:40:11.747Z,11.32
2018-11-03T18:42:41.083Z,11.32
2018-11-03T18:45:10.525Z,11.35
2018-11-03T18:47:40.309Z,11.34
2018-11-03T18:50:12.901Z,11.33
2018-11-03T18:52:42.313Z,11.32
2018-11-03T18:55:12.741Z,11.29
2018-11-03T18:57:42.418Z,11.27
2018-11-03T19:00:12.013Z,11.24
2018-11-03T19:02:42.245Z,11.24
2018-11-03T19:05:11.489Z,11.24
2018-11-03T19:07:40.870Z,11.22
2018-11-03T19:10:11.625Z,11.22
2018-11-03T19:12:42.030Z,11.23
2018-11-03T19:15:11.575Z,11.23
2018-11-03T19:17:41.241Z,11.20
2018-11-03T19:20:13.392Z,11.18
2018-11-03T19:22:42.854Z,11.20
2018-11-03T19:25:13.502Z,11.18
2018-11-03T19:27:42.882Z,11.18
2018-11-03T19:30:13.252Z,11.18
2018-11-03T19:32:43.846Z,11.17
2018-11-03T19:35:13.216Z,11.16
2018-11-03T19:37:42.791Z,11.15
2018-11-03T19:40:14.722Z,11.13
2018-11-03T19:42:44.054Z,11.11
2018-11-03T19:45:13.501Z,11.12
2018-11-03T19:47:47.289Z,11.12
2018-11-03T19:50:16.597Z,11.12
2018-11-03T19:52:45.897Z,11.13
2018-11-03T19:55:15.265Z,11.12
2018-11-03T19:57:45.585Z,11.12
2018-11-03T20:00:15.849Z,11.12
2018-11-03T20:02:45.832Z,11.12
2018-11-03T20:05:15.137Z,11.10
2018-11-03T20:07:44.788Z,11.07
2018-11-03T20:10:15.532Z,11.04
2018-11-03T20:12:44.731Z,11.05
2018-11-03T20:15:15.130Z,11.01
2018-11-03T20:17:44.441Z,10.99
2018-11-03T20:20:14.493Z,11.00
2018-11-03T20:22:43.897Z,11.00
2018-11-03T20:25:13.573Z,11.01
2018-11-03T20:27:42.913Z,10.98
2018-11-03T20:30:14.748Z,10.97
2018-11-03T20:32:44.802Z,10.98
2018-11-03T20:35:14.202Z,11.01
2018-11-03T20:37:43.874Z,10.98
2018-11-03T20:40:14.113Z,10.98
2018-11-03T20:42:45.506Z,10.99
2018-11-03T20:45:15.730Z,11.00
2018-11-03T20:47:45.094Z,11.01
2018-11-03T20:50:14.994Z,10.99
2018-11-03T20:52:44.316Z,11.00
2018-11-03T20:55:13.810Z,11.01
2018-11-03T20:57:43.137Z,11.00
2018-11-03T21:00:15.757Z,10.97
2018-11-03T21:02:46.775Z,10.97
2018-11-03T21:05:17.190Z,10.96
2018-11-03T21:07:48.506Z,10.95
2018-11-03T21:10:17.832Z,10.93
2018-11-03T21:12:47.152Z,10.89
2018-11-03T21:15:17.569Z,10.89
2018-11-03T21:17:52.277Z,10.88
2018-11-03T21:20:21.602Z,10.88
2018-11-03T21:22:50.995Z,10.88
2018-11-03T21:25:20.434Z,10.87
2018-11-03T21:27:50.881Z,10.87
2018-11-03T21:30:20.412Z,10.90
2018-11-03T21:32:49.780Z,10.91
2018-11-03T21:35:19.054Z,10.90
2018-11-03T21:37:48.381Z,10.88
2018-11-03T21:40:17.841Z,10.90
2018-11-03T21:42:47.715Z,10.90
2018-11-03T21:45:17.047Z,10.89
2018-11-03T21:47:46.346Z,10.89
2018-11-03T21:50:17.220Z,10.90
2018-11-03T21:52:50.442Z,10.90
2018-11-03T21:55:20.099Z,10.89
2018-11-03T21:57:51.442Z,10.90
2018-11-03T22:00:33.830Z,10.85
2018-11-03T22:03:03.855Z,10.89
2018-11-03T22:05:33.225Z,10.90
2018-11-03T22:08:02.626Z,10.81
2018-11-03T22:10:32.222Z,10.77
2018-11-03T22:13:02.881Z,10.77
2018-11-03T22:15:33.199Z,10.76
2018-11-03T22:18:02.913Z,10.73
2018-11-03T22:20:34.574Z,10.72
2018-11-03T22:23:05.992Z,10.70
2018-11-03T22:25:35.867Z,10.69
2018-11-03T22:28:31.584Z,10.71
2018-11-03T22:31:02.023Z,10.81
2018-11-03T22:33:31.374Z,10.81
2018-11-03T22:36:05.663Z,10.82
2018-11-03T22:38:37.764Z,10.79
2018-11-03T22:41:07.592Z,10.82
2018-11-03T22:43:37.247Z,10.84
2018-11-03T22:46:12.050Z,10.84
2018-11-03T22:48:43.564Z,10.84
2018-11-03T22:51:14.923Z,10.83
2018-11-03T22:53:45.718Z,10.82
2018-11-03T22:56:15.578Z,10.80
2018-11-03T22:58:45.571Z,10.81
2018-11-03T23:01:16.129Z,10.81
2018-11-03T23:03:45.933Z,10.83
2018-11-03T23:06:15.393Z,10.81
2018-11-03T23:08:44.810Z,10.82
2018-11-03T23:11:14.169Z,10.78
2018-11-03T23:14:04.424Z,10.79
2018-11-03T23:16:41.839Z,10.78
2018-11-03T23:19:11.716Z,10.79
2018-11-03T23:21:42.707Z,10.79
2018-11-03T23:24:13.421Z,10.78
2018-11-03T23:26:48.719Z,10.78
2018-11-03T23:29:18.311Z,10.79
2018-11-03T23:31:47.672Z,10.79
2018-11-03T23:34:26.844Z,10.79
2018-11-03T23:36:56.469Z,10.77
2018-11-03T23:39:25.884Z,10.76
2018-11-03T23:41:55.332Z,10.74
2018-11-03T23:44:24.684Z,10.78
2018-11-03T23:46:54.786Z,10.71
2018-11-03T23:49:24.409Z,10.65
2018-11-03T23:51:53.950Z,10.69
2018-11-03T23:54:23.297Z,10.70
2018-11-03T23:56:52.848Z,10.71
2018-11-03T23:59:22.744Z,10.73
